Time;durP1;ratioP1;P1;durP2;ratioP2;P2;SDS_P1;SDS_P2;PMS_P1;PMS_P2;Temp;Humidity;BMP_temperature;BMP_pressure;BME280_temperature;BME280_humidity;BME280_pressure;Samples;Min_cycle;Max_cycle;Signal;HPM_P1;HPM_P2
2021/09/26 00:04:03;;;;;;;6.72;3.47;;;;;;;;;;5131642;27;20357;-68
2021/09/26 00:07:46;;;;;;;7.35;3.75;;;;;;;;;;5131741;27;20465;-67
2021/09/26 00:10:13;;;;;;;5.63;3.13;;;;;;;;;;5110818;28;20507;-68
2021/09/26 00:14:53;;;;;;;6.90;3.03;;;;;;;;;;5111244;27;20396;-65
2021/09/26 00:17:19;;;;;;;9.65;2.75;;;;;;;;;;5110646;28;20111;-65
2021/09/26 00:19:45;;;;;;;5.70;3.03;;;;;;;;;;5109606;28;20063;-65
2021/09/26 00:25:17;;;;;;;6.68;3.67;;;;;;;;;;5111413;27;20477;-68
2021/09/26 00:28:12;;;;;;;6.38;3.08;;;;;;;;;;5111200;27;20392;-67
2021/09/26 00:30:39;;;;;;;4.88;2.97;;;;;;;;;;5109422;28;20369;-66
2021/09/26 00:33:05;;;;;;;6.85;3.20;;;;;;;;;;5111246;28;20047;-66
2021/09/26 00:36:31;;;;;;;8.25;3.80;;;;;;;;;;5111205;27;20458;-65
2021/09/26 00:38:57;;;;;;;6.18;3.47;;;;;;;;;;5110933;28;20028;-66
2021/09/26 00:41:23;;;;;;;7.18;3.90;;;;;;;;;;5110843;28;20026;-65
2021/09/26 00:44:37;;;;;;;7.55;3.60;;;;;;;;;;5110879;27;20928;-66
2021/09/26 00:47:04;;;;;;;6.15;3.38;;;;;;;;;;5111022;28;20112;-65
2021/09/26 00:49:30;;;;;;;5.97;3.10;;;;;;;;;;5111027;28;20028;-66
2021/09/26 00:53:09;;;;;;;6.72;2.85;;;;;;;;;;5111451;27;20416;-68
2021/09/26 00:55:36;;;;;;;6.25;3.22;;;;;;;;;;5110970;28;20443;-65
2021/09/26 00:58:02;;;;;;;8.18;3.50;;;;;;;;;;5110793;28;20047;-68
2021/09/26 01:00:28;;;;;;;7.20;3.20;;;;;;;;;;5111101;28;20024;-68
2021/09/26 01:04:30;;;;;;;6.40;3.17;;;;;;;;;;5110707;27;20419;-65
2021/09/26 01:07:09;;;;;;;7.05;2.78;;;;;;;;;;5111103;28;20073;-66
2021/09/26 01:09:35;;;;;;;5.68;3.40;;;;;;;;;;5110887;28;20035;-68
2021/09/26 01:14:59;;;;;;;6.18;3.28;;;;;;;;;;5111639;27;20408;-66
2021/09/26 01:17:29;;;;;;;8.27;4.28;;;;;;;;;;5110962;28;20032;-65
2021/09/26 01:25:00;;;;;;;7.10;3.50;;;;;;;;;;5111420;27;20397;-67
2021/09/26 01:27:44;;;;;;;6.68;3.55;;;;;;;;;;5110746;28;20028;-68
2021/09/26 01:32:42;;;;;;;7.97;3.53;;;;;;;;;;5110848;27;21032;-67
2021/09/26 01:40:22;;;;;;;7.85;3.70;;;;;;;;;;5110858;27;20461;-66
2021/09/26 01:44:33;;;;;;;6.55;3.40;;;;;;;;;;5173667;27;20117;-68
2021/09/26 01:47:01;;;;;;;7.35;3.25;;;;;;;;;;5151908;27;20421;-68
2021/09/26 01:49:29;;;;;;;9.25;3.55;;;;;;;;;;5152206;27;20030;-65
2021/09/26 01:51:57;;;;;;;10.57;3.50;;;;;;;;;;5152447;27;20071;-65
2021/09/26 01:54:47;;;;;;;6.38;3.75;;;;;;;;;;5131222;27;20315;-66
2021/09/26 01:57:15;;;;;;;9.00;4.40;;;;;;;;;;5110934;28;20026;-66
2021/09/26 01:59:41;;;;;;;7.40;3.55;;;;;;;;;;5110878;28;20031;-66
2021/09/26 02:02:08;;;;;;;6.90;3.80;;;;;;;;;;5110622;28;20028;-68
2021/09/26 02:05:23;;;;;;;8.82;4.30;;;;;;;;;;5111557;27;20397;-66
2021/09/26 02:08:14;;;;;;;8.85;3.70;;;;;;;;;;5110956;27;20453;-68
2021/09/26 02:13:57;;;;;;;6.10;3.25;;;;;;;;;;5111138;27;20412;-66
2021/09/26 02:16:24;;;;;;;6.28;3.03;;;;;;;;;;5110571;28;20110;-67
2021/09/26 02:21:10;;;;;;;7.78;3.30;;;;;;;;;;5111287;27;20322;-66
2021/09/26 02:23:36;;;;;;;6.03;3.35;;;;;;;;;;5110683;28;20085;-68
2021/09/26 02:26:04;;;;;;;6.45;2.88;;;;;;;;;;5111001;28;20043;-68
2021/09/26 02:28:31;;;;;;;13.95;4.78;;;;;;;;;;5111168;28;20491;-68
2021/09/26 02:30:57;;;;;;;8.00;3.70;;;;;;;;;;5109307;28;20027;-68
2021/09/26 02:34:01;;;;;;;8.68;3.42;;;;;;;;;;5111311;27;20404;-66
2021/09/26 02:36:27;;;;;;;9.45;3.58;;;;;;;;;;5110603;28;20103;-66
2021/09/26 02:38:53;;;;;;;7.63;3.70;;;;;;;;;;5110989;28;20063;-66
2021/09/26 02:41:58;;;;;;;5.57;3.05;;;;;;;;;;5111437;27;20461;-66
2021/09/26 02:46:40;;;;;;;6.30;3.15;;;;;;;;;;5111168;27;20473;-65
2021/09/26 02:49:07;;;;;;;6.72;3.10;;;;;;;;;;5111237;28;20024;-65
2021/09/26 02:52:44;;;;;;;6.00;3.08;;;;;;;;;;5111176;27;20966;-66
2021/09/26 02:56:12;;;;;;;6.55;3.60;;;;;;;;;;5111033;27;20396;-66
2021/09/26 02:58:39;;;;;;;7.78;3.50;;;;;;;;;;5110524;28;20020;-66
2021/09/26 03:01:31;;;;;;;4.47;2.80;;;;;;;;;;5111439;27;20757;-68
2021/09/26 03:04:02;;;;;;;7.85;3.45;;;;;;;;;;5110656;28;20102;-65
2021/09/26 03:07:13;;;;;;;7.45;3.35;;;;;;;;;;5111349;27;20923;-68
2021/09/26 03:12:23;;;;;;;8.73;3.03;;;;;;;;;;5110914;27;20520;-67
2021/09/26 03:15:55;;;;;;;5.65;2.72;;;;;;;;;;5111142;27;20401;-68
2021/09/26 03:21:13;;;;;;;6.20;3.33;;;;;;;;;;5070835;28;20383;-67
2021/09/26 03:23:40;;;;;;;8.30;3.30;;;;;;;;;;5070795;28;20033;-66
2021/09/26 03:26:06;;;;;;;7.55;3.05;;;;;;;;;;5068776;28;20484;-67
2021/09/26 03:28:43;;;;;;;6.22;3.38;;;;;;;;;;5111243;27;20909;-67
2021/09/26 03:31:37;;;;;;;6.05;3.55;;;;;;;;;;5111198;27;20385;-68
2021/09/26 03:34:04;;;;;;;6.90;3.25;;;;;;;;;;5110789;28;20027;-68
2021/09/26 03:36:30;;;;;;;8.57;3.35;;;;;;;;;;5111021;28;20044;-68
2021/09/26 03:38:56;;;;;;;6.30;2.83;;;;;;;;;;5109629;28;20103;-65
2021/09/26 03:42:59;;;;;;;6.47;3.58;;;;;;;;;;5111572;27;20442;-66
2021/09/26 03:45:25;;;;;;;7.20;4.13;;;;;;;;;;5110933;28;20024;-66
2021/09/26 03:47:52;;;;;;;9.90;4.88;;;;;;;;;;5109195;28;20059;-66
2021/09/26 03:50:18;;;;;;;8.48;4.43;;;;;;;;;;5110896;28;20020;-66
2021/09/26 03:52:44;;;;;;;7.07;3.95;;;;;;;;;;5111221;28;20024;-66
2021/09/26 03:55:12;;;;;;;8.45;3.60;;;;;;;;;;5110411;28;20027;-66
2021/09/26 03:57:39;;;;;;;6.22;3.25;;;;;;;;;;5110749;28;20099;-66
2021/09/26 04:00:06;;;;;;;8.70;3.85;;;;;;;;;;5110333;28;20047;-66
2021/09/26 04:02:32;;;;;;;6.80;3.58;;;;;;;;;;5110592;28;20373;-66
2021/09/26 04:05:11;;;;;;;6.80;3.60;;;;;;;;;;5111141;27;20424;-66
2021/09/26 04:07:37;;;;;;;6.18;3.42;;;;;;;;;;5110585;28;20031;-67
2021/09/26 04:10:20;;;;;;;6.78;3.40;;;;;;;;;;5111263;27;20373;-66
2021/09/26 04:18:27;;;;;;;6.00;3.38;;;;;;;;;;5111739;27;20412;-65
2021/09/26 04:21:45;;;;;;;9.73;3.92;;;;;;;;;;5050121;28;20417;-65
2021/09/26 04:24:12;;;;;;;5.75;3.40;;;;;;;;;;5050430;28;20034;-67
2021/09/26 04:27:21;;;;;;;10.85;3.80;;;;;;;;;;5111536;27;20393;-67
2021/09/26 04:31:06;;;;;;;7.72;3.40;;;;;;;;;;5111063;27;20310;-68
2021/09/26 04:33:32;;;;;;;8.70;3.63;;;;;;;;;;5111158;28;20020;-67
2021/09/26 04:35:58;;;;;;;6.78;3.78;;;;;;;;;;5110724;28;20028;-70
2021/09/26 04:38:25;;;;;;;6.70;3.70;;;;;;;;;;5109771;28;20103;-69
2021/09/26 04:40:51;;;;;;;6.18;3.78;;;;;;;;;;5111201;28;20480;-68
2021/09/26 04:43:17;;;;;;;10.20;4.40;;;;;;;;;;5110655;28;20040;-67
2021/09/26 04:45:43;;;;;;;8.30;4.60;;;;;;;;;;5109519;28;20051;-67
2021/09/26 04:51:19;;;;;;;9.10;4.32;;;;;;;;;;5110688;27;20392;-66
2021/09/26 04:53:45;;;;;;;7.28;3.72;;;;;;;;;;5111126;28;20028;-68
2021/09/26 05:02:01;;;;;;;9.30;3.55;;;;;;;;;;5070531;28;20890;-68
2021/09/26 05:04:30;;;;;;;8.18;4.07;;;;;;;;;;5070341;28;20111;-67
2021/09/26 05:10:10;;;;;;;7.50;3.90;;;;;;;;;;5111229;27;20499;-67
2021/09/26 05:14:08;;;;;;;8.68;3.85;;;;;;;;;;5070733;28;20486;-70
2021/09/26 05:18:18;;;;;;;8.07;4.40;;;;;;;;;;5110855;27;20388;-68
2021/09/26 05:24:25;;;;;;;8.60;4.15;;;;;;;;;;5111638;27;20450;-65
2021/09/26 05:26:51;;;;;;;6.97;3.70;;;;;;;;;;5110989;28;20039;-68
2021/09/26 05:34:29;;;;;;;7.13;4.22;;;;;;;;;;5111107;27;20839;-67
2021/09/26 05:37:26;;;;;;;6.07;3.10;;;;;;;;;;5111616;27;20505;-67
2021/09/26 05:39:52;;;;;;;6.32;3.58;;;;;;;;;;5110965;28;20371;-68
2021/09/26 05:44:06;;;;;;;7.35;3.95;;;;;;;;;;5111316;27;20758;-68
2021/09/26 05:47:41;;;;;;;6.82;3.20;;;;;;;;;;5131278;27;20809;-68
2021/09/26 05:50:07;;;;;;;5.82;3.45;;;;;;;;;;5111276;28;20028;-68
2021/09/26 05:53:21;;;;;;;6.43;3.13;;;;;;;;;;5110898;27;20392;-68
2021/09/26 05:58:50;;;;;;;8.75;2.95;;;;;;;;;;5111367;27;20459;-68
2021/09/26 06:01:16;;;;;;;6.38;3.00;;;;;;;;;;5110708;28;20551;-69
2021/09/26 06:03:42;;;;;;;8.10;3.47;;;;;;;;;;5109814;28;20107;-68
2021/09/26 06:06:09;;;;;;;5.45;2.75;;;;;;;;;;5111196;28;20028;-69
2021/09/26 06:10:22;;;;;;;8.63;4.40;;;;;;;;;;5111265;27;20915;-67
2021/09/26 06:12:48;;;;;;;9.43;5.38;;;;;;;;;;5111054;28;20102;-66
2021/09/26 06:17:01;;;;;;;9.50;3.97;;;;;;;;;;5173280;27;20155;-65
2021/09/26 06:19:27;;;;;;;13.07;4.82;;;;;;;;;;5152352;27;20034;-67
2021/09/26 06:21:53;;;;;;;7.63;4.07;;;;;;;;;;5151933;27;20019;-68
2021/09/26 06:24:19;;;;;;;6.97;3.40;;;;;;;;;;5133781;27;20425;-68
2021/09/26 06:26:45;;;;;;;9.73;4.18;;;;;;;;;;5152082;27;20559;-68
2021/09/26 06:32:31;;;;;;;6.65;3.25;;;;;;;;;;5070628;28;20399;-68
2021/09/26 06:34:57;;;;;;;5.50;3.30;;;;;;;;;;5069236;28;20428;-69
2021/09/26 06:38:45;;;;;;;7.47;3.28;;;;;;;;;;5111153;27;20400;-67
2021/09/26 06:41:14;;;;;;;6.75;3.70;;;;;;;;;;5111021;28;20035;-68
2021/09/26 06:44:52;;;;;;;9.48;3.45;;;;;;;;;;5111488;27;20517;-66
2021/09/26 06:47:18;;;;;;;7.93;3.03;;;;;;;;;;5109680;28;20028;-66
2021/09/26 06:49:45;;;;;;;5.57;3.00;;;;;;;;;;5110543;28;20384;-66
2021/09/26 06:52:13;;;;;;;8.55;3.45;;;;;;;;;;5110995;28;20073;-67
2021/09/26 06:54:39;;;;;;;6.82;3.13;;;;;;;;;;5110973;28;20355;-66
2021/09/26 06:57:05;;;;;;;7.97;3.60;;;;;;;;;;5110613;28;20074;-67
2021/09/26 07:00:05;;;;;;;10.85;4.18;;;;;;;;;;5111611;27;20109;-67
2021/09/26 07:03:20;;;;;;;9.23;4.13;;;;;;;;;;5110736;27;20496;-66
2021/09/26 07:05:46;;;;;;;6.20;3.28;;;;;;;;;;5111389;28;20461;-67
2021/09/26 07:09:22;;;;;;;6.72;3.42;;;;;;;;;;5111832;27;20957;-67
2021/09/26 07:11:48;;;;;;;9.93;3.97;;;;;;;;;;5110644;28;20488;-67
2021/09/26 07:14:14;;;;;;;7.28;3.22;;;;;;;;;;5110973;28;20031;-67
2021/09/26 07:18:01;;;;;;;8.32;3.80;;;;;;;;;;5111192;27;20516;-68
2021/09/26 07:20:28;;;;;;;7.15;3.38;;;;;;;;;;5111145;28;20028;-67
2021/09/26 07:22:58;;;;;;;5.22;2.92;;;;;;;;;;5109703;28;20491;-66
2021/09/26 07:27:15;;;;;;;7.20;3.15;;;;;;;;;;5111178;27;20419;-68
2021/09/26 07:29:41;;;;;;;7.13;3.67;;;;;;;;;;5111157;28;20028;-68
2021/09/26 07:32:07;;;;;;;7.18;3.50;;;;;;;;;;5110517;28;20020;-66
2021/09/26 07:34:34;;;;;;;7.55;3.28;;;;;;;;;;5111086;28;20365;-66
2021/09/26 07:37:41;;;;;;;10.15;3.28;;;;;;;;;;5111551;27;20839;-66
2021/09/26 07:40:07;;;;;;;8.77;3.13;;;;;;;;;;5110671;28;20030;-67
2021/09/26 07:42:34;;;;;;;5.60;2.50;;;;;;;;;;5111030;28;20502;-66
2021/09/26 07:45:03;;;;;;;6.00;3.13;;;;;;;;;;5110986;28;20034;-66
2021/09/26 07:48:00;;;;;;;7.28;2.90;;;;;;;;;;5131353;27;20319;-66
2021/09/26 07:53:57;;;;;;;6.80;3.75;;;;;;;;;;5110672;27;20508;-67
2021/09/26 07:58:42;;;;;;;7.95;3.70;;;;;;;;;;5111032;27;20458;-68
2021/09/26 08:01:08;;;;;;;6.63;3.70;;;;;;;;;;5110730;28;20056;-68
2021/09/26 08:03:34;;;;;;;6.45;3.58;;;;;;;;;;5110933;28;20027;-68
2021/09/26 08:06:42;;;;;;;6.18;2.90;;;;;;;;;;5110811;27;20384;-68
2021/09/26 08:09:09;;;;;;;6.22;3.63;;;;;;;;;;5110877;28;20038;-68
2021/09/26 08:11:35;;;;;;;7.30;3.40;;;;;;;;;;5110825;28;20553;-66
2021/09/26 08:14:01;;;;;;;6.60;3.40;;;;;;;;;;5110497;28;20028;-68
2021/09/26 08:16:28;;;;;;;6.82;4.28;;;;;;;;;;5110855;28;20031;-67
2021/09/26 08:18:54;;;;;;;8.63;3.63;;;;;;;;;;5109484;28;20015;-68
2021/09/26 08:23:29;;;;;;;6.78;3.17;;;;;;;;;;5111174;27;20452;-66
2021/09/26 08:25:55;;;;;;;7.65;3.40;;;;;;;;;;5111042;28;20024;-66
2021/09/26 08:28:23;;;;;;;8.20;3.13;;;;;;;;;;5110689;28;20020;-67
2021/09/26 08:30:49;;;;;;;5.50;3.05;;;;;;;;;;5111235;28;20047;-68
2021/09/26 08:33:16;;;;;;;6.38;3.35;;;;;;;;;;5110849;28;20020;-67
2021/09/26 08:35:42;;;;;;;7.90;3.80;;;;;;;;;;5110869;28;20043;-67
2021/09/26 08:38:08;;;;;;;7.60;4.60;;;;;;;;;;5109493;28;20052;-67
2021/09/26 08:40:34;;;;;;;6.78;3.10;;;;;;;;;;5110716;28;20047;-67
2021/09/26 08:43:01;;;;;;;6.35;3.38;;;;;;;;;;5110322;28;20042;-67
2021/09/26 08:45:29;;;;;;;6.88;3.40;;;;;;;;;;5110682;28;20020;-67
2021/09/26 08:47:56;;;;;;;6.75;3.22;;;;;;;;;;5110667;28;20099;-67
2021/09/26 08:53:08;;;;;;;7.65;3.63;;;;;;;;;;5111304;27;20381;-67
2021/09/26 08:55:35;;;;;;;7.43;3.40;;;;;;;;;;5109240;28;20052;-67
2021/09/26 08:58:01;;;;;;;6.82;3.20;;;;;;;;;;5109733;28;20020;-67
2021/09/26 09:00:28;;;;;;;6.63;3.58;;;;;;;;;;5111004;28;20380;-67
2021/09/26 09:02:54;;;;;;;7.78;3.20;;;;;;;;;;5110600;28;20027;-67
2021/09/26 09:05:29;;;;;;;9.52;3.08;;;;;;;;;;5110787;28;20024;-67
2021/09/26 09:08:05;;;;;;;6.63;3.13;;;;;;;;;;5110811;28;20030;-67
2021/09/26 09:10:40;;;;;;;8.20;3.33;;;;;;;;;;5110363;28;20024;-67
2021/09/26 09:13:08;;;;;;;5.95;3.20;;;;;;;;;;5110703;28;20027;-67
2021/09/26 09:15:34;;;;;;;6.63;2.72;;;;;;;;;;5110644;28;20020;-66
2021/09/26 09:18:01;;;;;;;8.35;3.33;;;;;;;;;;5110194;28;20062;-68
2021/09/26 09:20:28;;;;;;;6.80;3.67;;;;;;;;;;5110513;28;20012;-67
2021/09/26 09:22:59;;;;;;;7.15;3.47;;;;;;;;;;5110499;28;20016;-67
2021/09/26 09:25:36;;;;;;;13.07;3.13;;;;;;;;;;5109988;28;20031;-67
2021/09/26 09:28:07;;;;;;;7.82;3.47;;;;;;;;;;5110382;28;20023;-67
2021/09/26 09:30:38;;;;;;;8.02;3.67;;;;;;;;;;5110156;28;20031;-67
2021/09/26 09:33:04;;;;;;;8.00;3.33;;;;;;;;;;5110401;28;20131;-67
2021/09/26 09:37:28;;;;;;;8.18;3.45;;;;;;;;;;5111374;27;20462;-67
2021/09/26 09:40:18;;;;;;;8.43;3.45;;;;;;;;;;5110558;28;20396;-67
2021/09/26 09:42:46;;;;;;;7.00;3.35;;;;;;;;;;5111198;28;20027;-67
2021/09/26 09:45:23;;;;;;;8.02;3.53;;;;;;;;;;5110478;28;20016;-67
2021/09/26 09:48:03;;;;;;;7.88;3.20;;;;;;;;;;5109496;28;20024;-68
2021/09/26 09:51:55;;;;;;;7.57;3.50;;;;;;;;;;5110694;27;20777;-67
2021/09/26 09:54:33;;;;;;;7.35;3.20;;;;;;;;;;5110932;28;20502;-67
2021/09/26 09:57:12;;;;;;;7.03;3.25;;;;;;;;;;5110980;28;20024;-67
2021/09/26 09:59:38;;;;;;;6.45;3.22;;;;;;;;;;5110625;28;20048;-67
2021/09/26 10:02:05;;;;;;;5.72;3.17;;;;;;;;;;5110821;28;20073;-67
2021/09/26 10:04:41;;;;;;;5.38;2.50;;;;;;;;;;5111185;28;20020;-66
2021/09/26 10:07:39;;;;;;;5.13;2.58;;;;;;;;;;5110472;28;20039;-68
2021/09/26 10:10:15;;;;;;;7.05;3.15;;;;;;;;;;5076725;28;20040;-68
2021/09/26 10:12:41;;;;;;;5.32;3.05;;;;;;;;;;5110973;28;20088;-68
2021/09/26 10:15:07;;;;;;;7.75;2.97;;;;;;;;;;5110190;28;20507;-67
2021/09/26 10:17:33;;;;;;;4.53;2.63;;;;;;;;;;5110555;28;20028;-67
2021/09/26 10:20:00;;;;;;;5.70;3.03;;;;;;;;;;5110103;28;20024;-67
2021/09/26 10:22:26;;;;;;;6.32;3.17;;;;;;;;;;5109110;28;20092;-67
2021/09/26 10:24:53;;;;;;;8.15;2.72;;;;;;;;;;5110371;28;20031;-67
2021/09/26 10:27:22;;;;;;;5.43;2.88;;;;;;;;;;5109907;28;20506;-67
2021/09/26 10:29:59;;;;;;;5.05;2.58;;;;;;;;;;5110436;28;20027;-67
2021/09/26 10:32:26;;;;;;;6.00;2.85;;;;;;;;;;5109028;28;20131;-67
2021/09/26 10:34:53;;;;;;;4.93;2.28;;;;;;;;;;5110092;28;20035;-67
2021/09/26 10:37:21;;;;;;;5.60;2.83;;;;;;;;;;5110241;28;20016;-66
2021/09/26 10:39:49;;;;;;;5.35;2.92;;;;;;;;;;5110393;28;20035;-66
2021/09/26 10:42:16;;;;;;;4.75;2.53;;;;;;;;;;5109751;28;20102;-66
2021/09/26 10:44:45;;;;;;;5.60;2.83;;;;;;;;;;5110135;28;20024;-66
2021/09/26 10:47:16;;;;;;;3.78;2.15;;;;;;;;;;5108627;28;20015;-66
2021/09/26 10:49:45;;;;;;;4.72;2.60;;;;;;;;;;5109440;28;20388;-67
2021/09/26 10:52:44;;;;;;;4.75;2.55;;;;;;;;;;5108596;28;20177;-68
2021/09/26 10:55:22;;;;;;;6.38;2.30;;;;;;;;;;5093199;28;20032;-67
2021/09/26 10:58:00;;;;;;;5.10;2.30;;;;;;;;;;5109849;28;20069;-68
2021/09/26 11:00:29;;;;;;;5.57;2.70;;;;;;;;;;5109517;28;20020;-67
2021/09/26 11:02:56;;;;;;;8.23;3.03;;;;;;;;;;5097541;28;20078;-68
2021/09/26 11:05:29;;;;;;;5.20;2.70;;;;;;;;;;5096041;28;20048;-67
2021/09/26 11:07:55;;;;;;;4.43;2.80;;;;;;;;;;5096078;28;20020;-68
2021/09/26 11:10:41;;;;;;;3.70;2.20;;;;;;;;;;5095545;28;20047;-69
2021/09/26 11:13:12;;;;;;;4.63;2.53;;;;;;;;;;5096185;28;20024;-68
2021/09/26 11:15:58;;;;;;;10.57;2.80;;;;;;;;;;5096020;28;20028;-67
2021/09/26 11:18:43;;;;;;;7.43;3.30;;;;;;;;;;5095523;28;20036;-68
2021/09/26 11:21:09;;;;;;;7.00;2.40;;;;;;;;;;5095794;28;20036;-68
2021/09/26 11:23:36;;;;;;;4.68;2.10;;;;;;;;;;5095266;28;20020;-69
2021/09/26 11:26:04;;;;;;;3.90;1.95;;;;;;;;;;5094313;28;20020;-68
2021/09/26 11:28:33;;;;;;;5.57;2.20;;;;;;;;;;5095737;28;20031;-68
2021/09/26 11:30:59;;;;;;;4.00;2.05;;;;;;;;;;5095245;28;20507;-68
2021/09/26 11:33:26;;;;;;;5.25;2.25;;;;;;;;;;5095597;28;20024;-68
2021/09/26 11:35:52;;;;;;;5.00;2.15;;;;;;;;;;5095446;28;20035;-68
2021/09/26 11:38:19;;;;;;;7.40;3.45;;;;;;;;;;5095256;28;20024;-66
2021/09/26 11:40:46;;;;;;;5.40;2.03;;;;;;;;;;5095420;28;20059;-67
2021/09/26 11:43:19;;;;;;;4.13;2.17;;;;;;;;;;5095443;28;20028;-68
2021/09/26 11:45:46;;;;;;;4.15;2.20;;;;;;;;;;5094956;28;20407;-67
2021/09/26 11:48:12;;;;;;;3.13;1.58;;;;;;;;;;5095383;28;20024;-66
2021/09/26 11:50:39;;;;;;;4.30;2.10;;;;;;;;;;5094982;28;20087;-66
2021/09/26 11:53:06;;;;;;;4.57;1.88;;;;;;;;;;5094802;28;20020;-67
2021/09/26 11:55:36;;;;;;;3.97;1.90;;;;;;;;;;5095079;28;20495;-66
2021/09/26 11:58:05;;;;;;;4.78;2.20;;;;;;;;;;5094986;28;20024;-67
2021/09/26 12:00:34;;;;;;;4.45;2.30;;;;;;;;;;5094665;28;20027;-67
2021/09/26 12:03:15;;;;;;;6.47;2.38;;;;;;;;;;5094962;28;20013;-67
2021/09/26 12:05:42;;;;;;;3.57;1.47;;;;;;;;;;5094787;28;20141;-66
2021/09/26 12:08:09;;;;;;;4.00;1.77;;;;;;;;;;5094871;28;20425;-67
2021/09/26 12:10:35;;;;;;;3.60;1.83;;;;;;;;;;5094720;28;20504;-68
2021/09/26 12:13:11;;;;;;;3.63;1.90;;;;;;;;;;5094009;28;20016;-68
2021/09/26 12:15:38;;;;;;;3.60;1.88;;;;;;;;;;5093182;28;20037;-67
2021/09/26 12:18:04;;;;;;;4.35;1.77;;;;;;;;;;5094907;28;20035;-67
2021/09/26 12:20:30;;;;;;;3.42;1.98;;;;;;;;;;5094229;28;20024;-68
2021/09/26 12:23:00;;;;;;;2.72;1.98;;;;;;;;;;5095094;28;20035;-66
2021/09/26 12:25:34;;;;;;;3.00;1.75;;;;;;;;;;5094479;28;20024;-66
2021/09/26 12:28:06;;;;;;;2.88;1.70;;;;;;;;;;5094324;28;20085;-68
2021/09/26 12:30:45;;;;;;;2.75;1.70;;;;;;;;;;5094290;28;20024;-67
2021/09/26 12:33:23;;;;;;;4.80;1.90;;;;;;;;;;5094973;28;20412;-68
2021/09/26 12:35:57;;;;;;;2.50;1.67;;;;;;;;;;5094347;28;20099;-67
2021/09/26 12:38:29;;;;;;;3.67;1.92;;;;;;;;;;5094477;28;20020;-67
2021/09/26 12:41:04;;;;;;;2.03;1.20;;;;;;;;;;5093827;28;20024;-67
2021/09/26 12:43:34;;;;;;;3.70;2.00;;;;;;;;;;5094117;28;20024;-67
2021/09/26 12:46:01;;;;;;;2.90;1.70;;;;;;;;;;5094243;28;20028;-67
2021/09/26 12:48:28;;;;;;;3.17;1.90;;;;;;;;;;5093779;28;20020;-67
2021/09/26 12:50:57;;;;;;;3.38;1.67;;;;;;;;;;5093912;28;20044;-67
2021/09/26 12:53:26;;;;;;;5.30;1.73;;;;;;;;;;5094035;28;20081;-67
2021/09/26 12:55:53;;;;;;;3.47;1.90;;;;;;;;;;5093739;28;20099;-67
2021/09/26 12:58:30;;;;;;;2.95;1.67;;;;;;;;;;5093990;28;20012;-68
2021/09/26 13:01:08;;;;;;;2.58;1.73;;;;;;;;;;5093909;28;20028;-67
2021/09/26 13:03:34;;;;;;;3.80;2.10;;;;;;;;;;5093503;28;20541;-67
2021/09/26 13:06:05;;;;;;;5.63;2.63;;;;;;;;;;5093807;28;20095;-67
2021/09/26 13:08:33;;;;;;;3.78;1.70;;;;;;;;;;5093858;28;20061;-67
2021/09/26 13:11:07;;;;;;;4.50;1.80;;;;;;;;;;5093717;28;20468;-67
2021/09/26 13:13:38;;;;;;;5.20;2.00;;;;;;;;;;5093659;28;20043;-67
2021/09/26 13:16:38;;;;;;;4.35;2.03;;;;;;;;;;5093300;28;20035;-67
2021/09/26 13:19:23;;;;;;;2.58;1.45;;;;;;;;;;5060621;28;20037;-67
2021/09/26 13:22:09;;;;;;;2.35;1.50;;;;;;;;;;5093599;28;20354;-67
2021/09/26 13:24:38;;;;;;;4.53;1.27;;;;;;;;;;5082510;28;20485;-67
2021/09/26 13:27:22;;;;;;;2.28;1.42;;;;;;;;;;5093478;28;20056;-67
2021/09/26 13:29:49;;;;;;;4.63;1.58;;;;;;;;;;5092935;28;20077;-68
2021/09/26 13:32:21;;;;;;;2.08;1.35;;;;;;;;;;5092085;28;20035;-68
2021/09/26 13:34:55;;;;;;;3.67;1.45;;;;;;;;;;5092175;28;20451;-68
2021/09/26 13:37:22;;;;;;;3.33;1.80;;;;;;;;;;5093076;28;20021;-67
2021/09/26 13:39:50;;;;;;;2.78;1.88;;;;;;;;;;5093445;28;20052;-67
2021/09/26 13:42:19;;;;;;;2.83;1.45;;;;;;;;;;5093382;28;20020;-67
2021/09/26 13:44:47;;;;;;;2.90;1.70;;;;;;;;;;5091565;28;20370;-65
2021/09/26 13:47:13;;;;;;;3.28;1.80;;;;;;;;;;5093156;28;20537;-66
2021/09/26 13:49:39;;;;;;;2.33;1.45;;;;;;;;;;5092934;28;20031;-66
2021/09/26 13:52:05;;;;;;;3.05;1.50;;;;;;;;;;5091600;28;20536;-66
2021/09/26 13:54:32;;;;;;;2.50;1.67;;;;;;;;;;5093248;28;20423;-67
2021/09/26 13:56:59;;;;;;;2.13;1.48;;;;;;;;;;5093124;28;20024;-67
2021/09/26 13:59:26;;;;;;;3.08;1.52;;;;;;;;;;5092628;28;20017;-67
2021/09/26 14:01:52;;;;;;;3.03;1.67;;;;;;;;;;5093133;28;20396;-66
2021/09/26 14:04:18;;;;;;;4.35;2.03;;;;;;;;;;5093336;28;20082;-66
2021/09/26 14:06:45;;;;;;;4.32;2.10;;;;;;;;;;5092611;28;20048;-66
2021/09/26 14:09:11;;;;;;;2.80;1.50;;;;;;;;;;5093138;28;20020;-67
2021/09/26 14:11:37;;;;;;;3.15;1.48;;;;;;;;;;5092889;28;20078;-68
2021/09/26 14:14:04;;;;;;;4.47;1.88;;;;;;;;;;5092651;28;20035;-67
2021/09/26 14:16:30;;;;;;;2.95;1.48;;;;;;;;;;5092956;28;20103;-67
2021/09/26 14:18:57;;;;;;;2.90;1.48;;;;;;;;;;5092590;28;20021;-66
2021/09/26 14:21:24;;;;;;;1.90;1.10;;;;;;;;;;5092965;28;20444;-66
2021/09/26 14:23:51;;;;;;;2.13;1.27;;;;;;;;;;5093018;28;20048;-67
2021/09/26 14:26:18;;;;;;;3.90;1.80;;;;;;;;;;5092826;28;20024;-67
2021/09/26 14:28:44;;;;;;;3.22;1.45;;;;;;;;;;5093177;28;20028;-67
2021/09/26 14:31:11;;;;;;;2.65;1.48;;;;;;;;;;5092710;28;20141;-67
2021/09/26 14:33:39;;;;;;;2.90;1.73;;;;;;;;;;5092557;28;20044;-66
2021/09/26 14:36:05;;;;;;;2.78;1.40;;;;;;;;;;5092679;28;20024;-67
2021/09/26 14:38:31;;;;;;;2.42;1.45;;;;;;;;;;5096287;28;20022;-66
2021/09/26 14:40:58;;;;;;;2.03;1.27;;;;;;;;;;5096530;28;20380;-66
2021/09/26 14:43:24;;;;;;;3.42;1.77;;;;;;;;;;5096602;28;20024;-67
2021/09/26 14:45:50;;;;;;;3.45;1.50;;;;;;;;;;5096500;28;20055;-65
2021/09/26 14:48:16;;;;;;;4.32;1.92;;;;;;;;;;5096096;28;20024;-66
2021/09/26 14:50:43;;;;;;;3.85;2.15;;;;;;;;;;5096231;28;20485;-66
2021/09/26 14:53:11;;;;;;;3.90;1.95;;;;;;;;;;5096307;28;20058;-66
2021/09/26 14:55:37;;;;;;;6.90;1.67;;;;;;;;;;5096014;28;20024;-67
2021/09/26 14:58:04;;;;;;;4.80;1.90;;;;;;;;;;5096292;28;20401;-67
2021/09/26 15:00:30;;;;;;;3.88;1.83;;;;;;;;;;5096150;28;20023;-66
2021/09/26 15:02:56;;;;;;;3.70;1.48;;;;;;;;;;5095830;28;20035;-66
2021/09/26 15:05:23;;;;;;;3.40;1.88;;;;;;;;;;5094808;28;20024;-65
2021/09/26 15:07:49;;;;;;;4.95;2.00;;;;;;;;;;5096162;28;20034;-66
2021/09/26 15:10:16;;;;;;;2.92;1.52;;;;;;;;;;5095534;28;20217;-66
2021/09/26 15:12:43;;;;;;;2.92;1.75;;;;;;;;;;5094702;28;20016;-66
2021/09/26 15:15:11;;;;;;;2.50;1.40;;;;;;;;;;5096059;28;20024;-66
2021/09/26 15:17:38;;;;;;;4.88;1.80;;;;;;;;;;5094183;28;20472;-67
2021/09/26 15:20:05;;;;;;;2.42;1.65;;;;;;;;;;5094536;28;20452;-67
2021/09/26 15:22:32;;;;;;;3.15;1.48;;;;;;;;;;5095461;28;20024;-67
2021/09/26 15:24:58;;;;;;;2.85;1.50;;;;;;;;;;5095723;28;20024;-67
2021/09/26 15:27:24;;;;;;;3.55;2.08;;;;;;;;;;5095754;28;20032;-67
2021/09/26 15:29:50;;;;;;;2.92;1.63;;;;;;;;;;5095373;28;20046;-67
2021/09/26 15:32:17;;;;;;;4.47;2.38;;;;;;;;;;5095605;28;20024;-67
2021/09/26 15:34:43;;;;;;;3.85;2.45;;;;;;;;;;5095600;28;20054;-67
2021/09/26 15:37:10;;;;;;;7.30;3.67;;;;;;;;;;5095229;28;20024;-67
2021/09/26 15:39:36;;;;;;;7.75;3.40;;;;;;;;;;5095668;28;20096;-67
2021/09/26 15:42:03;;;;;;;5.65;2.90;;;;;;;;;;5095495;28;20051;-67
2021/09/26 15:44:29;;;;;;;4.45;2.65;;;;;;;;;;5095143;28;20024;-68
2021/09/26 15:46:56;;;;;;;4.28;2.08;;;;;;;;;;5095321;28;20020;-67
2021/09/26 15:49:24;;;;;;;3.63;1.88;;;;;;;;;;5095260;28;20031;-66
2021/09/26 15:51:51;;;;;;;4.75;1.88;;;;;;;;;;5094584;28;20063;-67
2021/09/26 15:54:17;;;;;;;3.30;1.95;;;;;;;;;;5095250;28;20028;-67
2021/09/26 15:56:44;;;;;;;5.90;1.77;;;;;;;;;;5095175;28;20416;-67
2021/09/26 15:59:10;;;;;;;5.35;2.67;;;;;;;;;;5094643;28;20016;-67
2021/09/26 16:01:36;;;;;;;8.43;2.70;;;;;;;;;;5095156;28;20025;-67
2021/09/26 16:04:03;;;;;;;8.32;3.90;;;;;;;;;;5094969;28;20362;-67
2021/09/26 16:06:29;;;;;;;9.00;3.90;;;;;;;;;;5094439;28;20097;-67
2021/09/26 16:08:55;;;;;;;9.52;4.65;;;;;;;;;;5094818;28;20020;-67
2021/09/26 16:11:22;;;;;;;13.63;5.50;;;;;;;;;;5095001;28;20059;-67
2021/09/26 16:13:48;;;;;;;10.68;5.13;;;;;;;;;;5094364;28;20093;-67
2021/09/26 16:16:14;;;;;;;10.23;4.95;;;;;;;;;;5093323;28;20118;-67
2021/09/26 16:18:41;;;;;;;8.90;4.22;;;;;;;;;;5094403;28;20020;-67
2021/09/26 16:21:10;;;;;;;12.73;5.40;;;;;;;;;;5094659;28;20072;-67
2021/09/26 16:23:37;;;;;;;15.65;5.20;;;;;;;;;;5094768;28;20469;-67
2021/09/26 16:26:03;;;;;;;13.70;4.95;;;;;;;;;;5094202;28;20055;-67
2021/09/26 16:28:31;;;;;;;18.60;5.68;;;;;;;;;;5094514;28;20020;-67
2021/09/26 16:30:58;;;;;;;18.95;8.30;;;;;;;;;;5094432;28;20088;-67
2021/09/26 16:33:27;;;;;;;17.60;6.50;;;;;;;;;;5094029;28;20028;-67
2021/09/26 16:35:53;;;;;;;14.88;6.13;;;;;;;;;;5093053;28;20028;-67
2021/09/26 16:38:20;;;;;;;12.20;6.20;;;;;;;;;;5092947;28;20031;-67
2021/09/26 16:40:46;;;;;;;13.02;4.13;;;;;;;;;;5093932;28;20028;-67
2021/09/26 16:43:13;;;;;;;9.27;4.28;;;;;;;;;;5094198;28;20024;-67
2021/09/26 16:45:40;;;;;;;14.00;6.15;;;;;;;;;;5094221;28;20031;-68
2021/09/26 16:48:08;;;;;;;8.50;4.63;;;;;;;;;;5093833;28;20477;-68
2021/09/26 16:50:35;;;;;;;8.52;4.47;;;;;;;;;;5092527;28;20056;-69
2021/09/26 16:53:13;;;;;;;10.60;5.10;;;;;;;;;;5111374;27;20389;-68
2021/09/26 16:55:39;;;;;;;12.90;4.40;;;;;;;;;;5110523;28;20084;-66